Time;durP1;ratioP1;P1;durP2;ratioP2;P2;SDS_P1;SDS_P2;PMS_P1;PMS_P2;Temp;Humidity;BMP_temperature;BMP_pressure;BME280_temperature;BME280_humidity;BME280_pressure;Samples;Min_cycle;Max_cycle;Signal;HPM_P1;HPM_P2
2023/10/22 00:00:07;;;;;;;8.60;2.78;;;11.80;99.90;;;;;;5094174;28;20108;-77
2023/10/22 00:02:35;;;;;;;10.35;2.60;;;11.80;99.90;;;;;;5090605;28;20048;-77
2023/10/22 00:05:01;;;;;;;8.32;2.03;;;11.80;99.90;;;;;;5094080;28;20572;-77
2023/10/22 00:07:26;;;;;;;9.27;2.10;;;11.80;99.90;;;;;;5099198;28;20036;-77
2023/10/22 00:09:54;;;;;;;8.52;2.60;;;11.80;99.90;;;;;;5082138;28;20394;-77
2023/10/22 00:12:20;;;;;;;7.50;2.30;;;11.90;99.90;;;;;;5079677;28;20060;-76
2023/10/22 00:14:45;;;;;;;8.65;2.03;;;11.80;99.90;;;;;;5093109;28;20040;-77
2023/10/22 00:17:11;;;;;;;9.48;2.05;;;11.90;99.90;;;;;;5087944;28;20058;-77
2023/10/22 00:19:37;;;;;;;10.20;2.33;;;12.00;99.90;;;;;;5082009;28;20049;-78
2023/10/22 00:22:02;;;;;;;8.52;2.17;;;12.00;99.90;;;;;;5081464;28;20089;-77
2023/10/22 00:24:28;;;;;;;7.57;2.65;;;12.00;99.90;;;;;;5061575;28;20044;-77
2023/10/22 00:26:54;;;;;;;9.65;2.22;;;12.00;99.90;;;;;;5079143;28;20040;-77
2023/10/22 00:29:19;;;;;;;9.35;1.95;;;12.00;99.90;;;;;;5095567;28;20079;-79
2023/10/22 00:31:45;;;;;;;7.85;2.17;;;12.10;99.90;;;;;;5083683;28;20564;-78
2023/10/22 00:34:11;;;;;;;8.88;2.28;;;12.10;99.90;;;;;;5107778;28;20044;-78
2023/10/22 00:36:37;;;;;;;5.57;2.20;;;12.10;99.90;;;;;;5103482;28;20040;-77
2023/10/22 00:39:02;;;;;;;9.38;2.80;;;12.10;99.90;;;;;;5085667;28;20040;-80
2023/10/22 00:41:28;;;;;;;10.07;2.38;;;12.10;99.90;;;;;;5091477;28;20068;-77
2023/10/22 00:43:54;;;;;;;8.20;2.22;;;12.10;99.90;;;;;;5079322;28;20044;-78
2023/10/22 00:46:23;;;;;;;6.03;1.73;;;12.10;99.90;;;;;;5079121;28;20044;-77
2023/10/22 00:48:50;;;;;;;10.00;2.10;;;12.10;99.90;;;;;;5099266;28;20096;-78
2023/10/22 00:51:17;;;;;;;7.68;2.30;;;12.20;99.90;;;;;;5096366;28;21891;-78
2023/10/22 00:53:48;;;;;;;12.65;2.10;;;12.20;99.90;;;;;;5097717;28;20389;-76
2023/10/22 00:56:14;;;;;;;5.55;1.75;;;12.10;99.90;;;;;;5096647;28;20045;-77
2023/10/22 00:58:42;;;;;;;6.07;2.30;;;12.10;99.90;;;;;;5101128;28;20044;-77
2023/10/22 01:01:09;;;;;;;5.38;2.20;;;12.20;99.90;;;;;;5086422;28;20048;-78
2023/10/22 01:03:39;;;;;;;6.97;1.83;;;12.20;99.90;;;;;;5093237;28;20036;-78
2023/10/22 01:06:05;;;;;;;8.95;2.47;;;12.20;99.90;;;;;;5096616;28;20355;-78
2023/10/22 01:08:35;;;;;;;13.93;2.20;;;12.10;99.90;;;;;;5099174;28;20378;-78
2023/10/22 01:11:12;;;;;;;9.35;2.47;;;12.20;99.90;;;;;;5083331;28;20043;-77
2023/10/22 01:13:39;;;;;;;8.57;2.63;;;12.10;99.90;;;;;;5097328;28;20056;-78
2023/10/22 01:16:08;;;;;;;7.82;2.33;;;12.10;99.90;;;;;;5100979;28;20111;-77
2023/10/22 01:18:34;;;;;;;10.07;2.25;;;12.10;99.90;;;;;;5094759;28;20140;-77
2023/10/22 01:20:59;;;;;;;7.10;2.00;;;12.10;99.90;;;;;;5061653;28;20124;-77
2023/10/22 01:23:25;;;;;;;6.65;2.00;;;12.20;99.90;;;;;;5115772;27;20079;-76
2023/10/22 01:25:51;;;;;;;6.88;1.98;;;12.50;99.90;;;;;;5098407;28;20024;-77
2023/10/22 01:28:17;;;;;;;6.07;1.67;;;12.20;99.90;;;;;;5075870;28;20105;-78
2023/10/22 01:30:44;;;;;;;6.30;1.52;;;12.20;99.90;;;;;;5082144;28;20096;-78
2023/10/22 01:33:09;;;;;;;6.07;1.70;;;12.20;99.90;;;;;;5105210;28;20067;-79
2023/10/22 01:35:38;;;;;;;7.30;1.60;;;12.20;99.90;;;;;;5091797;28;20036;-77
2023/10/22 01:38:08;;;;;;;4.90;1.90;;;12.20;99.90;;;;;;5097678;28;20044;-78
2023/10/22 01:40:35;;;;;;;6.72;1.50;;;12.20;99.90;;;;;;5099087;28;20039;-78
2023/10/22 01:43:04;;;;;;;6.03;1.83;;;12.60;99.90;;;;;;5098965;28;20090;-77
2023/10/22 01:45:29;;;;;;;4.65;1.55;;;12.20;99.90;;;;;;5086404;28;20079;-77
2023/10/22 01:47:55;;;;;;;5.80;1.70;;;12.20;99.90;;;;;;5092735;28;20040;-77
2023/10/22 01:50:21;;;;;;;5.22;1.70;;;12.20;99.90;;;;;;5096331;28;20100;-77
2023/10/22 01:52:46;;;;;;;5.70;1.80;;;12.20;99.90;;;;;;5087804;28;20051;-77
2023/10/22 01:55:12;;;;;;;7.38;1.77;;;12.10;99.90;;;;;;5095529;28;20051;-77
2023/10/22 01:57:37;;;;;;;7.05;1.83;;;12.10;99.90;;;;;;5083354;28;20048;-78
2023/10/22 02:00:04;;;;;;;5.55;1.65;;;12.10;99.90;;;;;;5078147;28;20040;-78
2023/10/22 02:02:30;;;;;;;8.55;2.50;;;12.10;99.90;;;;;;5073815;28;20070;-77
2023/10/22 02:04:55;;;;;;;6.07;1.73;;;12.00;99.90;;;;;;5099406;28;20044;-77
2023/10/22 02:07:21;;;;;;;7.68;2.08;;;12.10;99.90;;;;;;5081859;28;20466;-77
2023/10/22 02:09:46;;;;;;;6.35;1.98;;;11.90;99.90;;;;;;5083205;28;20094;-77
2023/10/22 02:12:12;;;;;;;6.68;2.10;;;11.90;99.90;;;;;;5081603;28;20036;-77
2023/10/22 02:14:37;;;;;;;11.55;1.90;;;11.80;99.90;;;;;;5086899;28;20044;-76
2023/10/22 02:17:04;;;;;;;6.70;2.22;;;11.80;99.90;;;;;;5085100;28;20486;-77
2023/10/22 02:19:29;;;;;;;5.13;1.95;;;11.70;99.90;;;;;;5081988;28;20082;-77
2023/10/22 02:21:55;;;;;;;7.43;1.98;;;11.70;99.90;;;;;;5104878;28;20040;-77
2023/10/22 02:24:20;;;;;;;9.70;2.30;;;11.70;99.90;;;;;;5080879;28;20091;-76
2023/10/22 02:26:46;;;;;;;8.38;2.30;;;11.70;99.90;;;;;;5091699;28;20129;-77
2023/10/22 02:29:13;;;;;;;7.22;2.00;;;11.70;99.90;;;;;;5080524;28;20040;-78
2023/10/22 02:31:39;;;;;;;11.75;2.90;;;12.20;99.90;;;;;;5084729;28;20035;-77
2023/10/22 02:34:07;;;;;;;13.13;2.75;;;11.60;99.90;;;;;;5100374;28;20044;-78
2023/10/22 02:36:33;;;;;;;8.05;2.13;;;11.60;99.90;;;;;;5106542;28;20036;-78
2023/10/22 02:39:00;;;;;;;9.55;2.53;;;11.60;99.90;;;;;;5115312;28;20044;-77
2023/10/22 02:41:28;;;;;;;9.52;2.75;;;11.50;99.90;;;;;;5090399;28;20123;-77
2023/10/22 02:43:54;;;;;;;;;;;11.50;99.90;;;;;;5094318;28;20049;-76
2023/10/22 02:46:19;;;;;;;8.60;2.78;;;11.50;99.90;;;;;;5073220;28;19920;-78
2023/10/22 02:48:45;;;;;;;9.18;3.60;;;11.50;99.90;;;;;;5093049;28;20048;-77
2023/10/22 02:51:11;;;;;;;6.85;3.13;;;11.40;99.90;;;;;;5106976;28;20111;-78
2023/10/22 02:53:38;;;;;;;6.63;3.45;;;11.50;99.90;;;;;;5094422;28;20079;-78
2023/10/22 02:56:04;;;;;;;10.57;3.70;;;11.50;99.90;;;;;;5080773;28;20453;-78
2023/10/22 02:58:30;;;;;;;9.65;3.78;;;11.40;99.90;;;;;;5074297;28;20112;-77
2023/10/22 03:01:03;;;;;;;10.20;3.85;;;11.40;99.90;;;;;;5077243;28;20040;-77
2023/10/22 03:03:29;;;;;;;9.35;4.20;;;11.40;99.90;;;;;;5088274;28;20060;-78
2023/10/22 03:05:58;;;;;;;12.00;3.55;;;11.60;99.90;;;;;;5088354;28;20064;-76
2023/10/22 03:08:24;;;;;;;8.75;3.53;;;11.40;99.90;;;;;;5096839;28;20470;-76
2023/10/22 03:10:52;;;;;;;9.02;4.15;;;11.40;99.90;;;;;;5082143;28;20043;-77
2023/10/22 03:13:18;;;;;;;7.85;3.20;;;11.40;99.90;;;;;;5084879;28;20121;-76
2023/10/22 03:15:43;;;;;;;8.43;3.70;;;11.30;99.90;;;;;;5101868;28;20486;-77
2023/10/22 03:18:09;;;;;;;10.43;4.03;;;11.30;99.90;;;;;;5102119;28;20044;-78
2023/10/22 03:20:34;;;;;;;9.85;4.03;;;11.40;99.90;;;;;;5093163;28;20136;-77
2023/10/22 03:23:03;;;;;;;6.32;3.35;;;11.30;99.90;;;;;;5087263;28;20040;-77
2023/10/22 03:25:29;;;;;;;7.50;3.63;;;11.80;99.90;;;;;;5100832;28;20067;-77
2023/10/22 03:27:55;;;;;;;8.23;3.53;;;11.40;99.90;;;;;;5095694;28;20381;-77
2023/10/22 03:30:22;;;;;;;9.77;3.58;;;11.30;99.90;;;;;;5096122;28;20044;-76
2023/10/22 03:32:47;;;;;;;10.30;3.78;;;11.80;99.90;;;;;;5085009;28;20060;-77
2023/10/22 03:35:13;;;;;;;7.97;3.55;;;11.30;99.90;;;;;;5061116;28;20044;-78
2023/10/22 03:37:39;;;;;;;12.02;4.30;;;11.40;99.90;;;;;;5089073;28;20047;-78
2023/10/22 03:40:06;;;;;;;9.27;3.95;;;11.30;99.90;;;;;;5081230;28;20044;-77
2023/10/22 03:42:31;;;;;;;11.75;3.28;;;11.40;99.90;;;;;;5099236;28;20105;-76
2023/10/22 03:44:57;;;;;;;8.23;3.53;;;11.40;99.90;;;;;;5097725;28;20039;-77
2023/10/22 03:47:25;;;;;;;9.40;3.35;;;11.40;99.90;;;;;;5088870;28;20501;-76
2023/10/22 03:49:51;;;;;;;8.43;2.92;;;11.40;99.90;;;;;;5099205;28;20036;-77
2023/10/22 03:52:20;;;;;;;12.70;3.72;;;11.40;99.90;;;;;;5089537;28;20098;-78
2023/10/22 03:54:46;;;;;;;11.27;3.28;;;11.40;99.90;;;;;;5078165;28;20558;-77
2023/10/22 03:57:11;;;;;;;8.30;3.17;;;11.40;99.90;;;;;;5076307;28;20044;-77
2023/10/22 03:59:37;;;;;;;10.02;3.90;;;11.40;99.90;;;;;;5102977;27;20127;-77
2023/10/22 04:02:03;;;;;;;7.15;3.30;;;11.40;99.90;;;;;;5082025;28;20044;-76
2023/10/22 04:04:28;;;;;;;8.82;3.10;;;11.40;99.90;;;;;;5093312;28;20093;-79
2023/10/22 04:06:57;;;;;;;8.23;3.33;;;11.60;99.90;;;;;;5093011;28;20415;-78
2023/10/22 04:09:23;;;;;;;11.30;3.10;;;11.40;99.90;;;;;;5093648;28;20063;-77
2023/10/22 04:11:49;;;;;;;9.88;3.20;;;11.40;99.90;;;;;;5077568;28;20044;-77
2023/10/22 04:14:17;;;;;;;4.60;2.88;;;11.50;99.90;;;;;;5080222;28;20070;-77
2023/10/22 04:16:43;;;;;;;10.13;3.63;;;11.40;99.90;;;;;;5078067;28;20374;-78
2023/10/22 04:19:09;;;;;;;6.80;3.00;;;11.70;99.90;;;;;;5090852;28;20043;-77
2023/10/22 04:21:34;;;;;;;7.47;3.03;;;11.90;99.90;;;;;;5098268;28;20067;-76
2023/10/22 04:24:00;;;;;;;11.70;3.70;;;11.50;99.90;;;;;;5097036;28;20059;-77
2023/10/22 04:26:27;;;;;;;6.28;2.95;;;11.50;99.90;;;;;;5079764;28;20371;-77
2023/10/22 04:28:52;;;;;;;9.73;3.55;;;11.50;99.90;;;;;;5097701;28;20044;-75
2023/10/22 04:31:18;;;;;;;7.40;3.70;;;11.50;99.90;;;;;;5071492;28;20035;-75
2023/10/22 04:33:44;;;;;;;9.23;3.40;;;11.50;99.90;;;;;;5106711;27;20048;-75
2023/10/22 04:36:19;;;;;;;7.82;2.97;;;11.50;99.90;;;;;;5078743;28;20083;-76
2023/10/22 04:38:44;;;;;;;8.27;3.10;;;11.50;99.90;;;;;;5098238;28;20468;-77
2023/10/22 04:41:11;;;;;;;6.35;3.63;;;11.50;99.90;;;;;;5084427;28;20037;-77
2023/10/22 04:43:37;;;;;;;6.38;3.20;;;11.50;99.90;;;;;;5082764;28;20067;-75
2023/10/22 04:46:03;;;;;;;7.13;2.95;;;11.50;99.90;;;;;;5084542;28;20032;-76
2023/10/22 04:48:30;;;;;;;5.40;3.05;;;11.50;99.90;;;;;;5097883;28;20101;-76
2023/10/22 04:50:57;;;;;;;4.90;3.10;;;11.40;99.90;;;;;;5114313;28;20526;-77
2023/10/22 04:53:23;;;;;;;6.82;2.85;;;11.50;99.90;;;;;;5094971;28;20078;-77
2023/10/22 04:55:59;;;;;;;7.15;3.10;;;11.50;99.90;;;;;;5097057;28;20051;-76
2023/10/22 04:58:25;;;;;;;5.13;2.83;;;11.50;99.90;;;;;;5077941;28;20115;-78
2023/10/22 05:00:50;;;;;;;5.70;3.10;;;11.50;99.90;;;;;;5079514;28;20048;-77
2023/10/22 05:03:16;;;;;;;5.35;3.00;;;11.50;99.90;;;;;;5079379;28;20049;-75
2023/10/22 05:05:42;;;;;;;5.82;3.20;;;11.50;99.90;;;;;;5099067;28;20078;-77
2023/10/22 05:08:09;;;;;;;4.03;3.00;;;11.50;99.90;;;;;;5085155;28;20123;-77
2023/10/22 05:10:41;;;;;;;5.70;3.22;;;11.50;99.90;;;;;;5085058;28;20048;-77
2023/10/22 05:13:08;;;;;;;4.63;3.08;;;11.50;99.90;;;;;;5090656;28;20102;-77
2023/10/22 05:15:34;;;;;;;4.32;3.08;;;11.50;99.90;;;;;;5097883;27;20041;-76
2023/10/22 05:18:07;;;;;;;5.25;3.15;;;11.90;99.90;;;;;;5073161;28;20531;-76
2023/10/22 05:20:34;;;;;;;5.22;3.17;;;11.50;99.90;;;;;;5101944;28;20046;-75
2023/10/22 05:23:03;;;;;;;3.90;3.38;;;11.60;99.90;;;;;;5096861;28;20094;-76
2023/10/22 05:25:28;;;;;;;8.30;4.72;;;11.70;99.90;;;;;;5094429;28;20051;-77
2023/10/22 05:27:54;;;;;;;10.63;4.18;;;11.50;99.90;;;;;;5074127;28;20035;-76
2023/10/22 05:30:20;;;;;;;8.02;4.20;;;11.80;99.90;;;;;;5080024;28;20044;-77
2023/10/22 05:32:46;;;;;;;7.60;4.78;;;11.60;99.90;;;;;;5081362;28;20044;-76
2023/10/22 05:35:11;;;;;;;7.35;5.93;;;11.60;99.90;;;;;;5075947;28;20040;-76
2023/10/22 05:37:37;;;;;;;10.82;6.35;;;11.60;99.90;;;;;;5076768;28;20419;-76
2023/10/22 05:40:06;;;;;;;8.45;6.10;;;11.60;99.90;;;;;;5074667;28;20052;-77
2023/10/22 05:42:33;;;;;;;7.85;6.57;;;11.60;99.90;;;;;;5087963;28;20086;-78
2023/10/22 05:45:00;;;;;;;9.48;7.60;;;11.70;99.90;;;;;;5081545;28;20033;-78
2023/10/22 05:47:30;;;;;;;13.88;8.23;;;11.70;99.90;;;;;;5077296;28;20048;-78
2023/10/22 05:49:55;;;;;;;10.90;8.35;;;11.70;99.90;;;;;;5077671;28;20037;-78
2023/10/22 05:52:23;;;;;;;10.75;8.57;;;11.70;99.90;;;;;;5092582;28;20077;-77
2023/10/22 05:54:51;;;;;;;17.00;9.25;;;11.70;99.90;;;;;;5095577;28;20051;-76
2023/10/22 05:57:20;;;;;;;12.15;8.85;;;11.70;99.90;;;;;;5082978;28;20045;-78
2023/10/22 05:59:45;;;;;;;14.35;9.45;;;11.70;99.90;;;;;;5087503;28;20052;-78
2023/10/22 06:02:11;;;;;;;16.17;10.18;;;11.70;99.90;;;;;;5088804;28;20048;-77
2023/10/22 06:04:36;;;;;;;15.15;10.82;;;11.80;99.90;;;;;;5087996;28;20045;-78
2023/10/22 06:07:02;;;;;;;13.10;9.55;;;11.80;99.90;;;;;;5096764;28;20127;-77
2023/10/22 06:09:28;;;;;;;12.77;9.15;;;11.80;99.90;;;;;;5113849;28;20047;-77
2023/10/22 06:11:53;;;;;;;13.73;8.85;;;11.80;99.90;;;;;;5085661;28;20036;-76
2023/10/22 06:14:19;;;;;;;16.65;8.80;;;11.90;99.90;;;;;;5102712;28;20061;-77
2023/10/22 06:16:45;;;;;;;10.38;7.45;;;11.80;99.90;;;;;;5078195;28;20040;-76
2023/10/22 06:19:12;;;;;;;7.30;5.70;;;11.90;99.90;;;;;;5080752;28;20048;-77
2023/10/22 06:21:39;;;;;;;5.63;4.75;;;11.80;99.90;;;;;;5080598;28;20501;-76
2023/10/22 06:24:06;;;;;;;9.02;3.95;;;11.90;99.90;;;;;;5080309;28;20040;-76
2023/10/22 06:26:35;;;;;;;4.30;2.60;;;11.90;99.90;;;;;;5061054;28;20075;-75
2023/10/22 06:29:00;;;;;;;14.32;3.10;;;11.90;99.90;;;;;;5060242;28;20051;-77
2023/10/22 06:31:26;;;;;;;7.93;3.30;;;11.90;99.90;;;;;;5095086;28;20043;-77
2023/10/22 06:33:52;;;;;;;16.17;4.75;;;11.80;99.90;;;;;;5078920;28;20566;-77
2023/10/22 06:36:20;;;;;;;13.35;5.50;;;11.80;99.90;;;;;;5089720;28;20052;-76
2023/10/22 06:38:46;;;;;;;;;;;11.80;99.90;;;;;;5094835;28;20055;-77
2023/10/22 06:41:16;;;;;;;9.90;3.85;;;11.70;99.90;;;;;;5094876;28;20274;-76
2023/10/22 06:43:43;;;;;;;10.35;3.90;;;11.70;99.90;;;;;;5083372;28;20097;-76
2023/10/22 06:46:10;;;;;;;11.35;3.85;;;11.70;99.90;;;;;;5105917;28;20047;-77
2023/10/22 06:48:36;;;;;;;15.40;4.88;;;11.70;99.90;;;;;;5088562;28;20044;-77
2023/10/22 06:51:03;;;;;;;11.13;3.97;;;11.60;99.90;;;;;;5097519;28;20036;-77
2023/10/22 06:53:30;;;;;;;13.45;4.20;;;11.60;99.90;;;;;;5097079;28;20153;-76
2023/10/22 06:55:56;;;;;;;10.05;3.50;;;11.60;99.90;;;;;;5092907;28;20090;-76
2023/10/22 06:58:22;;;;;;;11.70;3.67;;;11.50;99.90;;;;;;5079474;28;20494;-76
2023/10/22 07:00:47;;;;;;;8.95;2.90;;;11.50;99.90;;;;;;5077253;28;20156;-78
2023/10/22 07:03:13;;;;;;;8.73;3.10;;;11.50;99.90;;;;;;5088803;28;20103;-77
2023/10/22 07:05:39;;;;;;;6.32;2.92;;;11.50;99.90;;;;;;5084548;28;20509;-77
2023/10/22 07:08:04;;;;;;;10.45;3.05;;;11.50;99.90;;;;;;5098612;28;20067;-77
2023/10/22 07:10:30;;;;;;;8.95;3.80;;;11.40;99.90;;;;;;5098223;28;20047;-77
2023/10/22 07:12:57;;;;;;;13.10;3.63;;;11.40;99.90;;;;;;5096289;28;20036;-77
2023/10/22 07:15:24;;;;;;;10.82;4.13;;;11.40;99.90;;;;;;5113378;28;20365;-76
2023/10/22 07:17:51;;;;;;;14.20;4.03;;;11.40;99.90;;;;;;5083269;28;20132;-76
2023/10/22 07:20:17;;;;;;;10.68;3.47;;;11.40;99.90;;;;;;5090172;28;20173;-75
2023/10/22 07:22:43;;;;;;;23.30;5.03;;;11.40;99.90;;;;;;5089551;28;20116;-75
2023/10/22 07:25:09;;;;;;;15.68;5.00;;;11.40;99.90;;;;;;5064236;28;20522;-76
2023/10/22 07:27:34;;;;;;;16.17;4.88;;;11.40;99.90;;;;;;5081103;28;20127;-78
2023/10/22 07:30:00;;;;;;;19.17;5.45;;;11.40;99.90;;;;;;5105973;28;20134;-76
2023/10/22 07:32:26;;;;;;;23.35;4.95;;;11.50;99.90;;;;;;5107238;28;20093;-78
2023/10/22 07:34:51;;;;;;;11.32;4.25;;;11.40;99.90;;;;;;5099045;28;20040;-77
2023/10/22 07:37:17;;;;;;;13.90;4.20;;;11.40;99.90;;;;;;5102367;28;20520;-76
2023/10/22 07:39:42;;;;;;;24.88;6.20;;;11.40;99.90;;;;;;5093771;28;20052;-78
2023/10/22 07:42:09;;;;;;;18.40;4.93;;;11.40;99.90;;;;;;5098994;28;20055;-78
2023/10/22 07:44:34;;;;;;;22.98;5.28;;;11.40;99.90;;;;;;5080473;28;20052;-76
2023/10/22 07:47:00;;;;;;;17.38;4.93;;;11.40;99.90;;;;;;5091136;28;20076;-77
2023/10/22 07:49:26;;;;;;;17.17;5.10;;;11.40;99.90;;;;;;5109204;28;20484;-77
2023/10/22 07:51:51;;;;;;;12.80;3.70;;;11.40;99.90;;;;;;5078525;28;20041;-77
2023/10/22 07:54:17;;;;;;;18.77;5.13;;;11.40;99.90;;;;;;5098009;28;20047;-77
2023/10/22 07:56:42;;;;;;;6.28;3.20;;;11.40;99.90;;;;;;5082161;28;20037;-77
2023/10/22 07:59:08;;;;;;;13.68;4.30;;;11.40;99.90;;;;;;5079355;28;20032;-77
2023/10/22 08:01:34;;;;;;;12.68;5.32;;;11.40;99.90;;;;;;5086740;28;20505;-77
2023/10/22 08:03:59;;;;;;;15.32;6.25;;;11.30;99.90;;;;;;5081658;28;20123;-78
2023/10/22 08:06:25;;;;;;;18.80;6.47;;;11.30;99.90;;;;;;5093772;28;20436;-78
2023/10/22 08:08:56;;;;;;;16.27;6.40;;;11.30;99.90;;;;;;5081526;28;20131;-78
2023/10/22 08:11:21;;;;;;;25.23;7.97;;;11.30;99.90;;;;;;5079462;28;20114;-78
2023/10/22 08:13:47;;;;;;;15.38;5.40;;;11.40;99.90;;;;;;5066505;28;20052;-79
2023/10/22 08:16:13;;;;;;;17.95;7.25;;;11.70;99.90;;;;;;5079872;28;20045;-79
2023/10/22 08:18:39;;;;;;;24.65;8.95;;;11.70;99.90;;;;;;5079546;28;20072;-78
2023/10/22 08:21:08;;;;;;;22.50;7.65;;;11.90;99.90;;;;;;5093809;28;20043;-79
2023/10/22 08:23:40;;;;;;;18.23;6.47;;;11.50;99.90;;;;;;5096340;28;20040;-78
2023/10/22 08:26:06;;;;;;;20.48;7.70;;;11.40;99.90;;;;;;5102580;28;20130;-76
2023/10/22 08:28:32;;;;;;;26.05;8.23;;;11.40;99.90;;;;;;5083592;28;20044;-78
2023/10/22 08:30:59;;;;;;;22.17;7.38;;;11.70;99.90;;;;;;5077887;28;20044;-78
2023/10/22 08:33:25;;;;;;;16.25;8.00;;;11.40;99.90;;;;;;5091118;28;20378;-77
2023/10/22 08:35:53;;;;;;;19.08;6.82;;;11.50;99.90;;;;;;5113568;28;20036;-78
2023/10/22 08:38:19;;;;;;;;;;;11.50;99.90;;;;;;5101876;28;20048;-77
2023/10/22 08:40:45;;;;;;;13.82;4.88;;;11.80;99.90;;;;;;5093180;28;19921;-76
2023/10/22 08:43:18;;;;;;;27.48;7.70;;;11.60;99.90;;;;;;5075629;28;20382;-78
2023/10/22 08:45:49;;;;;;;17.25;5.35;;;11.70;99.90;;;;;;5109275;28;20044;-78
2023/10/22 08:48:19;;;;;;;9.82;4.88;;;11.70;99.90;;;;;;5093871;28;20494;-77
2023/10/22 08:50:47;;;;;;;19.98;6.55;;;11.70;99.90;;;;;;5081747;28;20067;-77
2023/10/22 08:53:14;;;;;;;18.67;6.47;;;11.80;99.90;;;;;;5077679;28;20114;-76
2023/10/22 08:55:47;;;;;;;16.90;5.32;;;12.00;99.90;;;;;;5091954;28;20062;-77
2023/10/22 08:58:19;;;;;;;13.65;5.55;;;12.10;99.90;;;;;;5091207;28;20077;-77
2023/10/22 09:00:46;;;;;;;12.20;3.55;;;11.90;99.90;;;;;;5086875;28;20040;-76
2023/10/22 09:03:17;;;;;;;16.45;4.97;;;11.90;99.90;;;;;;5074263;28;20051;-77
2023/10/22 09:05:43;;;;;;;15.70;4.22;;;11.90;99.90;;;;;;5092857;28;20097;-77
2023/10/22 09:08:10;;;;;;;10.13;4.47;;;11.90;99.90;;;;;;5080471;28;20041;-77
2023/10/22 09:10:36;;;;;;;13.38;4.78;;;11.90;99.90;;;;;;5074306;28;20041;-76
2023/10/22 09:13:22;;;;;;;10.13;3.67;;;11.90;99.90;;;;;;5076110;28;20041;-77
2023/10/22 09:15:50;;;;;;;10.77;3.72;;;12.00;99.90;;;;;;5115151;27;20057;-77
2023/10/22 09:18:17;;;;;;;10.75;3.65;;;12.10;99.90;;;;;;5083117;28;20057;-77
2023/10/22 09:20:47;;;;;;;9.93;3.08;;;12.00;99.90;;;;;;5103171;28;20062;-78
2023/10/22 09:23:19;;;;;;;11.73;2.72;;;12.00;99.90;;;;;;5095533;28;20044;-77
2023/10/22 09:25:47;;;;;;;7.80;3.05;;;12.00;99.90;;;;;;5087918;28;20052;-77
2023/10/22 09:28:14;;;;;;;13.57;3.00;;;12.10;99.90;;;;;;5088176;28;20072;-78
2023/10/22 09:30:41;;;;;;;12.35;3.60;;;12.10;99.90;;;;;;5094130;28;20071;-78
2023/10/22 09:33:08;;;;;;;9.70;2.45;;;12.10;99.90;;;;;;5086212;28;20571;-77
2023/10/22 09:35:35;;;;;;;8.65;2.17;;;12.20;99.90;;;;;;5103609;28;20036;-77
2023/10/22 09:38:01;;;;;;;8.27;2.40;;;12.20;99.90;;;;;;5099740;28;20408;-77
2023/10/22 09:40:27;;;;;;;9.20;2.25;;;12.20;99.90;;;;;;5075771;28;20089;-77
2023/10/22 09:42:54;;;;;;;8.30;2.13;;;12.30;99.90;;;;;;5107292;28;20041;-78
2023/10/22 09:45:23;;;;;;;9.02;2.10;;;12.40;99.90;;;;;;5100308;28;20055;-77
2023/10/22 09:47:52;;;;;;;6.15;1.95;;;12.40;99.90;;;;;;5085094;28;20495;-78
2023/10/22 09:50:19;;;;;;;6.85;1.90;;;12.70;99.90;;;;;;5078190;28;20044;-77
2023/10/22 09:52:46;;;;;;;8.82;2.00;;;13.20;99.90;;;;;;5095957;28;20490;-78
2023/10/22 09:55:13;;;;;;;10.68;1.95;;;13.80;99.90;;;;;;5082522;28;20498;-77
2023/10/22 09:57:40;;;;;;;4.90;1.40;;;14.20;99.90;;;;;;5076199;28;20045;-77
2023/10/22 10:00:12;;;;;;;6.47;1.60;;;14.60;99.90;;;;;;5089636;28;20048;-77
2023/10/22 10:02:42;;;;;;;6.55;1.70;;;15.10;99.90;;;;;;5096116;28;20469;-76
2023/10/22 10:05:12;;;;;;;4.40;1.30;;;15.40;99.90;;;;;;5094488;28;20070;-77
2023/10/22 10:07:40;;;;;;;5.18;1.88;;;15.70;99.90;;;;;;5089683;28;20229;-76
2023/10/22 10:10:08;;;;;;;4.18;1.33;;;16.00;99.90;;;;;;5095352;28;20067;-77
2023/10/22 10:12:40;;;;;;;5.97;1.85;;;16.10;99.90;;;;;;5083830;28;20084;-77
2023/10/22 10:15:06;;;;;;;3.53;1.33;;;16.20;99.90;;;;;;5118399;28;20044;-78
2023/10/22 10:17:52;;;;;;;4.18;1.23;;;16.50;99.90;;;;;;5084996;28;20194;-77
2023/10/22 10:20:30;;;;;;;4.22;1.10;;;16.50;99.90;;;;;;5093817;28;20055;-77
2023/10/22 10:23:23;;;;;;;3.00;1.20;;;16.50;99.90;;;;;;5084642;28;20048;-77
2023/10/22 10:25:49;;;;;;;3.78;1.23;;;16.70;99.90;;;;;;5083511;28;20053;-77
2023/10/22 10:28:14;;;;;;;3.78;1.52;;;16.80;99.90;;;;;;5096629;28;20456;-76
2023/10/22 10:30:40;;;;;;;3.85;1.05;;;16.90;99.90;;;;;;5106816;28;20535;-77
2023/10/22 10:33:07;;;;;;;5.65;1.50;;;17.10;99.90;;;;;;5077443;28;20044;-78
2023/10/22 10:35:48;;;;;;;5.03;1.30;;;17.30;99.90;;;;;;5075665;28;20363;-77
2023/10/22 10:38:14;;;;;;;4.85;1.20;;;17.20;99.90;;;;;;5101756;28;20058;-77
2023/10/22 10:40:51;;;;;;;5.22;1.58;;;16.80;99.90;;;;;;5078064;28;20068;-78
2023/10/22 10:43:18;;;;;;;2.88;1.20;;;16.60;99.90;;;;;;5075064;28;20540;-77
2023/10/22 10:46:21;;;;;;;6.97;1.30;;;16.40;99.90;;;;;;5080267;28;20502;-77
2023/10/22 10:48:51;;;;;;;4.38;1.30;;;16.20;99.90;;;;;;5087916;28;20098;-78
2023/10/22 10:51:18;;;;;;;7.20;1.33;;;15.80;99.90;;;;;;5083281;28;20545;-78
2023/10/22 10:54:19;;;;;;;4.22;1.25;;;15.50;99.90;;;;;;5073791;28;20043;-76
2023/10/22 10:56:52;;;;;;;5.88;1.67;;;15.20;99.90;;;;;;5093199;28;20409;-78
2023/10/22 10:59:30;;;;;;;2.17;1.20;;;15.00;99.90;;;;;;5088043;28;20064;-76
2023/10/22 11:02:04;;;;;;;5.75;1.70;;;14.60;99.90;;;;;;5080588;28;20052;-78
2023/10/22 11:04:30;;;;;;;4.30;1.40;;;14.50;99.90;;;;;;5088958;28;20483;-77
2023/10/22 11:06:57;;;;;;;3.25;1.50;;;14.40;99.90;;;;;;5083693;28;20044;-77
2023/10/22 11:09:23;;;;;;;3.25;1.60;;;14.40;99.90;;;;;;5107615;28;20044;-77
2023/10/22 11:11:58;;;;;;;4.93;1.33;;;14.30;99.90;;;;;;5095174;28;20051;-77
2023/10/22 11:14:25;;;;;;;5.57;1.25;;;14.20;99.90;;;;;;5081660;28;20086;-78
2023/10/22 11:16:53;;;;;;;4.30;1.20;;;14.30;99.90;;;;;;5079629;28;20057;-76
2023/10/22 11:19:30;;;;;;;5.28;1.40;;;14.50;99.90;;;;;;5074478;28;20040;-76
2023/10/22 11:21:57;;;;;;;4.03;1.20;;;14.50;99.90;;;;;;5080637;28;20101;-76
2023/10/22 11:24:32;;;;;;;2.67;1.10;;;14.30;99.90;;;;;;5076982;28;20040;-77
2023/10/22 11:27:00;;;;;;;4.32;1.30;;;14.20;99.90;;;;;;5088210;28;20044;-78
2023/10/22 11:29:26;;;;;;;6.47;1.38;;;14.20;99.90;;;;;;5096269;28;20067;-76
2023/10/22 11:31:53;;;;;;;5.78;1.25;;;14.00;99.90;;;;;;5088900;28;20044;-77
2023/10/22 11:34:19;;;;;;;2.45;1.10;;;14.00;99.90;;;;;;5078306;28;20448;-76
2023/10/22 11:36:45;;;;;;;3.55;1.17;;;14.00;99.90;;;;;;5095330;28;20047;-79
2023/10/22 11:39:19;;;;;;;3.33;1.30;;;14.00;99.90;;;;;;5093252;28;20038;-77
2023/10/22 11:41:46;;;;;;;5.40;1.48;;;13.90;99.90;;;;;;5094456;28;20040;-77
2023/10/22 11:44:32;;;;;;;7.60;1.23;;;14.10;99.90;;;;;;5099871;28;20046;-77
2023/10/22 11:46:59;;;;;;;2.70;1.10;;;13.70;99.90;;;;;;5103653;28;20259;-77
2023/10/22 11:49:25;;;;;;;7.18;1.65;;;13.60;99.90;;;;;;5085280;28;20052;-77
2023/10/22 11:51:50;;;;;;;4.28;1.35;;;13.50;99.90;;;;;;5083424;28;20382;-77
2023/10/22 11:54:16;;;;;;;6.28;1.60;;;13.40;99.90;;;;;;5089242;28;20122;-77
2023/10/22 11:56:42;;;;;;;2.65;1.20;;;13.40;99.90;;;;;;5090925;28;20048;-76
2023/10/22 11:59:08;;;;;;;3.45;1.35;;;13.10;99.90;;;;;;5102133;28;20059;-77
2023/10/22 12:01:33;;;;;;;6.53;1.20;;;13.10;99.90;;;;;;5095795;28;20044;-77
2023/10/22 12:03:59;;;;;;;3.05;1.40;;;13.00;99.90;;;;;;5080699;28;20162;-77
2023/10/22 12:06:25;;;;;;;3.67;1.00;;;13.00;99.90;;;;;;5108723;28;20116;-77
2023/10/22 12:08:51;;;;;;;4.13;1.50;;;12.90;99.90;;;;;;5094240;28;20054;-77
2023/10/22 12:11:16;;;;;;;3.17;1.30;;;13.00;99.90;;;;;;5091581;28;20033;-78
2023/10/22 12:13:42;;;;;;;3.83;1.27;;;12.90;99.90;;;;;;5078810;28;20044;-78
2023/10/22 12:16:08;;;;;;;2.58;1.25;;;12.90;99.90;;;;;;5107546;28;20486;-77
2023/10/22 12:18:34;;;;;;;4.30;1.52;;;12.90;99.90;;;;;;5097292;28;20553;-76
2023/10/22 12:20:59;;;;;;;3.10;1.40;;;12.90;99.90;;;;;;5093499;28;20036;-76
2023/10/22 12:23:25;;;;;;;3.45;1.30;;;13.20;99.90;;;;;;5080749;28;20044;-78
2023/10/22 12:25:51;;;;;;;2.63;1.00;;;12.90;99.90;;;;;;5083729;28;20051;-77
2023/10/22 12:28:16;;;;;;;5.18;1.40;;;12.90;99.90;;;;;;5095557;28;20044;-77
2023/10/22 12:30:42;;;;;;;2.20;1.13;;;12.90;99.90;;;;;;5087640;28;20484;-76
2023/10/22 12:33:11;;;;;;;4.28;1.20;;;12.90;99.90;;;;;;5076012;28;20045;-78
2023/10/22 12:35:40;;;;;;;4.05;1.20;;;13.00;99.90;;;;;;5091213;28;20044;-78
2023/10/22 12:38:05;;;;;;;4.38;1.60;;;13.00;99.90;;;;;;5092636;28;20073;-75
2023/10/22 12:40:31;;;;;;;2.90;1.15;;;12.90;99.90;;;;;;5086977;28;20109;-78
2023/10/22 12:42:57;;;;;;;2.40;1.40;;;12.90;99.90;;;;;;5088433;28;20048;-77